MDLR/LRM METAR and TAF weather

Enter ICAO airport designator
Station Type Date Time Source
MDLR METAR 2021/08/05 03:00 UTC NOAA

MDLR 050300Z 00000KT 9999 FEW018 24/24 Q1018


Station Type Date Time Source
MDLR Decoded METAR 2021/08/05 03:00 UTC NOAA

La Romana International Airport, Dominican Republic (MDLR) 18-25N 068-57W
Aug 04, 2021 - 11:00 PM EDT / 2021.08.05 0300 UTC
Wind: Calm:0
Visibility: greater than 7 mile(s):0
Sky conditions: mostly clear
Temperature: 75 F (24 C)
Dew Point: 75 F (24 C)
Relative Humidity: 100%
Pressure (altimeter): 30.06 in. Hg (1018 hPa)
ob: MDLR 050300Z 00000KT 9999 FEW018 24/24 Q1018
cycle: 3

Station Type Date Time Source
MDLR TAF 2021/08/04 18:36 UTC NOAA

TAF TAF MDLR 0418/0518 13010KT 9999 SCT022
BECMG 0500/0502 00000KT PROB30 0506/0512 7000 -TSRA FEW016CB SCT016

Example: see airport list